Ashokan, NY

11:54 PM EDT on May 27, 2015 (GMT -0400)
Bag End | | Change Station
CLOSE
Current Station
Personal Weather Station
Location: Boiceville, NY
Elevation: 1096 ft
Nearby Weather Stations

Elev 1096 ft 42.00 °N, 74.25 °W | Updated 9 seconds ago

Mostly Cloudy
Mostly Cloudy
63.7 °F
Feels Like 63.7 °F
N
0.0
Wind Variable Wind from SE
Gusts 2.2 mph

Today
High -- | Low -- °F
--% Chance of Precip.
Yesterday
High -- | Low -- °F
Precip. -- in
5:26 AM 8:21 PM
Waxing Gibbous, 72% visible
Pressure 30.10 in
Visibility 10.0 miles
Clouds Clear
Dew Point 63 °F
Humidity 99%
Rainfall 0.30 in
Snow Depth Not available.
UV 0 out of 12
Pollen 6.60 out of 12
Air Quality Not available.
Flu Activity Widespread
METAR KPOU 280253Z 00000KT 10SM CLR 20/18 A3011 RMK AO2 SLP193 60000 T02000183 55004

More Conditions Fewer Conditions

Pressure 30.10 in
Visibility 10.0 miles
Clouds Clear
Dew Point 63 °F
Humidity 99%
Rainfall 0.30 in
Snow Depth Not available.
UV 0 out of 12
Pollen 6.60 out of 12
Air Quality Not available.
Flu Activity Widespread
METAR KPOU 280253Z 00000KT 10SM CLR 20/18 A3011 RMK AO2 SLP193 60000 T02000183 55004

More Conditions Fewer Conditions

10-Day Weather Forecast

Almanac

Astronomy

May. 27, 2015 Rise Set
Actual Time
Civil Twilight
Nautical Twilight
Astronomical Twilight
Moon
Length of Visible Light
Length of Day
Tomorrow will be .
, % of the Moon is Illuminated

Today's Extremes

State Highs State Lows

Community

WunderPhotos

Upload Photos

1,824,902 photos uploaded!

WunderBlogs® & News

Nearby

Air Quality

  Air Quality AQ Index Pollutant
Not available.

Snow Depth

Station Depth Elevation

Earthquake Activity

City Distance Mag. Time & Date
Minimum magnitude displayed is 2.5.

Coastal Water Temperatures

Place Temperature

Stations

Nearby Weather Stations

Station Location Temp. Windchill Dew Point Humidity Wind Precip. Elev Updated Type